Current | Forecast
Updated: 10:30 PM CEST on August 22, 2017
Observed at Osijek - Cepin, Croatia
Temperature 14°C
Humidity 77%
Dew Point 10°C
Wind West at 7 km/h
Pressure 1018 hPa (Steady)
Conditions Clear
Visibility -
UV N/A
Clouds
Yesterday's Maximum 24°C
Yesterday's Minimum 11°C approx.
Yesterday's Heating Degree Days 2 approx.
Sunrise5:56 AM CEST
Sunset7:43 PM CEST
Moon Rise6:27 AM CEST
Moon Set8:14 PM CEST
Moon PhaseMoon Phase
New Moon
Raw METARMETAR LDOS 222030Z 27004KT CAVOK 14/10 Q1018


Monday
. High: 71° F.
Tuesday
. High: 78° F.
Wednesday
. High: 84° F.
Thursday
. High: 80° F.
Friday
. High: 73° F.
Saturday
. High: 73° F.
Sunday
. High: 84° F.
Monday
. High: 73° F.

Units: English | Metric

Find the Weather for any City, State or Zipcode, or Country:

U.S. State List | Severe Weather | Tropical Storms | Ski Conditions
United States | Canada | Central America | South America | Asia | Europe | Australia | Africa | Islands

Weather Underground

© Copyright 2017
The Weather Company, LLC